createdAt,value
2022-09-23T00:00:01.922Z,0
2022-09-23T00:01:18.208Z,0
2022-09-23T00:02:34.511Z,0
2022-09-23T00:03:50.798Z,0
2022-09-23T00:05:07.105Z,0
2022-09-23T00:06:23.402Z,0
2022-09-23T00:07:39.695Z,0
2022-09-23T00:08:55.987Z,0
2022-09-23T00:10:12.275Z,0
2022-09-23T00:11:28.572Z,0
2022-09-23T00:12:44.876Z,0
2022-09-23T00:14:01.163Z,0
2022-09-23T00:15:17.459Z,0
2022-09-23T00:16:32.776Z,0
2022-09-23T00:17:49.055Z,0
2022-09-23T00:19:05.351Z,0
2022-09-23T00:20:21.653Z,0
2022-09-23T00:21:37.935Z,0
2022-09-23T00:22:54.248Z,0
2022-09-23T00:24:10.529Z,0
2022-09-23T00:25:26.831Z,0
2022-09-23T00:26:43.131Z,0
2022-09-23T00:27:59.423Z,0
2022-09-23T00:29:15.718Z,0
2022-09-23T00:30:32.006Z,0
2022-09-23T00:31:48.299Z,0
2022-09-23T00:33:03.607Z,0
2022-09-23T00:34:19.896Z,0
2022-09-23T00:35:36.208Z,0
2022-09-23T00:39:25.086Z,0
2022-09-23T00:40:41.387Z,0
2022-09-23T00:41:57.673Z,0
2022-09-23T00:43:13.977Z,0
2022-09-23T00:44:30.266Z,0
2022-09-23T00:45:46.564Z,0
2022-09-23T00:47:02.855Z,0
2022-09-23T00:48:19.137Z,0
2022-09-23T00:49:34.450Z,0
2022-09-23T00:50:50.757Z,0
2022-09-23T00:52:07.039Z,0
2022-09-23T00:53:23.333Z,0
2022-09-23T00:54:39.635Z,0
2022-09-23T00:55:55.934Z,0
2022-09-23T00:57:12.217Z,0
2022-09-23T00:58:28.506Z,0
2022-09-23T00:59:44.811Z,0
2022-09-23T01:01:01.098Z,0
2022-09-23T01:02:17.390Z,0
2022-09-23T01:03:33.699Z,0
2022-09-23T01:04:49.979Z,0
2022-09-23T01:06:05.295Z,0
2022-09-23T01:07:21.594Z,0
2022-09-23T01:08:37.898Z,0
2022-09-23T01:09:54.191Z,0
2022-09-23T01:11:10.485Z,0
2022-09-23T01:12:26.766Z,0
2022-09-23T01:13:43.062Z,0
2022-09-23T01:14:59.353Z,0
2022-09-23T01:16:15.652Z,0
2022-09-23T01:17:31.949Z,0
2022-09-23T01:18:48.254Z,0
2022-09-23T01:20:04.538Z,0
2022-09-23T01:21:20.833Z,0
2022-09-23T01:22:36.143Z,0
2022-09-23T01:23:52.447Z,0
2022-09-23T01:25:08.739Z,0
2022-09-23T01:26:25.021Z,0
2022-09-23T01:27:41.312Z,0
2022-09-23T01:28:57.607Z,0
2022-09-23T01:30:13.904Z,0
2022-09-23T01:31:30.195Z,0
2022-09-23T01:32:46.491Z,0
2022-09-23T01:34:02.794Z,0
2022-09-23T01:35:19.088Z,0
2022-09-23T01:36:35.389Z,0
2022-09-23T01:39:07.968Z,0
2022-09-23T01:40:23.277Z,0
2022-09-23T01:41:39.567Z,0
2022-09-23T01:42:55.869Z,0
2022-09-23T01:44:12.166Z,0
2022-09-23T01:45:28.466Z,0
2022-09-23T01:46:44.755Z,0
2022-09-23T01:48:01.053Z,0
2022-09-23T01:49:17.341Z,0
2022-09-23T01:50:33.634Z,0
2022-09-23T01:51:49.930Z,0
2022-09-23T01:53:06.218Z,0
2022-09-23T01:54:22.514Z,0
2022-09-23T01:55:38.817Z,0
2022-09-23T01:56:54.129Z,0
2022-09-23T01:58:10.418Z,0
2022-09-23T01:59:26.708Z,0
2022-09-23T02:00:43.021Z,0
2022-09-23T02:01:59.299Z,0
2022-09-23T02:03:15.592Z,0
2022-09-23T02:04:31.895Z,0
2022-09-23T02:07:04.491Z,0
2022-09-23T02:08:20.770Z,0
2022-09-23T02:09:37.077Z,0
2022-09-23T02:10:53.371Z,0
2022-09-23T02:12:09.661Z,0
2022-09-23T02:13:24.971Z,0
2022-09-23T02:14:41.259Z,0
2022-09-23T02:15:57.565Z,0
2022-09-23T02:17:13.864Z,0
2022-09-23T02:18:30.156Z,0
2022-09-23T02:19:46.443Z,0
2022-09-23T02:21:02.741Z,0
2022-09-23T02:22:19.026Z,0
2022-09-23T02:23:35.338Z,0
2022-09-23T02:24:51.631Z,0
2022-09-23T02:26:07.927Z,0
2022-09-23T02:27:24.201Z,0
2022-09-23T02:28:40.498Z,0
2022-09-23T02:29:55.823Z,0
2022-09-23T02:31:12.104Z,0
2022-09-23T02:32:28.407Z,0
2022-09-23T02:33:44.710Z,0
2022-09-23T02:35:00.999Z,0
2022-09-23T02:36:17.284Z,0
2022-09-23T02:37:33.586Z,0
2022-09-23T02:38:49.882Z,0
2022-09-23T02:40:06.168Z,0
2022-09-23T02:41:22.461Z,0
2022-09-23T02:42:38.767Z,0
2022-09-23T02:43:55.050Z,0
2022-09-23T02:45:11.357Z,0
2022-09-23T02:46:27.652Z,0
2022-09-23T02:47:42.951Z,0
2022-09-23T02:48:59.241Z,0
2022-09-23T02:50:15.550Z,0
2022-09-23T02:51:31.846Z,0
2022-09-23T02:52:48.139Z,0
2022-09-23T02:54:04.422Z,0
2022-09-23T02:55:20.728Z,0
2022-09-23T02:56:37.008Z,0
2022-09-23T02:57:53.307Z,0
2022-09-23T02:59:09.607Z,0
2022-09-23T03:00:25.894Z,0
2022-09-23T03:01:42.190Z,0
2022-09-23T03:02:58.482Z,0
2022-09-23T03:04:13.804Z,0
2022-09-23T03:05:30.104Z,0
2022-09-23T03:06:46.383Z,0
2022-09-23T03:08:02.685Z,0
2022-09-23T03:09:18.977Z,0
2022-09-23T03:10:35.283Z,0
2022-09-23T03:11:51.565Z,0
2022-09-23T03:13:07.861Z,0
2022-09-23T03:14:24.163Z,0
2022-09-23T03:15:40.460Z,0
2022-09-23T03:16:56.749Z,0
2022-09-23T03:18:13.036Z,0
2022-09-23T03:19:29.330Z,0
2022-09-23T03:20:44.655Z,0
2022-09-23T03:22:00.933Z,0
2022-09-23T03:23:17.227Z,0
2022-09-23T03:24:33.528Z,0
2022-09-23T03:25:49.828Z,0
2022-09-23T03:27:06.114Z,0
2022-09-23T03:28:22.402Z,0
2022-09-23T03:29:38.709Z,0
2022-09-23T03:30:55.006Z,0
2022-09-23T03:32:11.292Z,0
2022-09-23T03:33:27.586Z,0
2022-09-23T03:34:43.893Z,0
2022-09-23T03:36:00.189Z,0
2022-09-23T03:37:16.473Z,0
2022-09-23T03:38:31.793Z,0
2022-09-23T03:39:48.072Z,0
2022-09-23T03:41:04.367Z,0
2022-09-23T03:43:36.970Z,0
2022-09-23T03:44:53.256Z,0
2022-09-23T03:46:09.546Z,0
2022-09-23T03:48:42.134Z,0
2022-09-23T03:49:58.438Z,0
2022-09-23T03:51:14.736Z,0
2022-09-23T03:52:31.017Z,0
2022-09-23T03:53:47.326Z,0
2022-09-23T03:55:02.626Z,0
2022-09-23T03:56:18.916Z,0
2022-09-23T03:57:35.211Z,0
2022-09-23T03:58:51.517Z,0
2022-09-23T04:00:07.818Z,0
2022-09-23T04:01:24.000Z,0
2022-09-23T04:02:40.407Z,0
2022-09-23T04:03:56.685Z,0
2022-09-23T04:05:12.981Z,0
2022-09-23T04:06:29.292Z,0
2022-09-23T04:07:45.587Z,0
2022-09-23T04:09:01.879Z,0
2022-09-23T04:10:18.169Z,0
2022-09-23T04:11:33.477Z,0
2022-09-23T04:12:49.769Z,0
2022-09-23T04:14:05.080Z,0
2022-09-23T04:15:21.388Z,0
2022-09-23T04:16:37.673Z,0
2022-09-23T04:17:53.972Z,0
2022-09-23T04:19:10.216Z,0
2022-09-23T04:20:26.506Z,0
2022-09-23T04:21:42.763Z,0
2022-09-23T04:22:58.995Z,0
2022-09-23T04:24:15.233Z,0
2022-09-23T04:25:31.530Z,0
2022-09-23T04:26:47.787Z,0
2022-09-23T04:28:04.017Z,0
2022-09-23T04:29:20.281Z,0
2022-09-23T04:30:35.534Z,0
2022-09-23T04:31:51.771Z,0
2022-09-23T04:33:08.026Z,0
2022-09-23T04:34:24.255Z,0
2022-09-23T04:35:40.492Z,0
2022-09-23T04:36:56.741Z,0
2022-09-23T04:38:12.986Z,0
2022-09-23T04:39:29.222Z,0
2022-09-23T04:40:45.465Z,0
2022-09-23T04:42:01.701Z,0
2022-09-23T04:43:17.943Z,0
2022-09-23T04:44:34.179Z,0
2022-09-23T04:45:50.415Z,0
2022-09-23T04:47:05.667Z,0
2022-09-23T04:49:38.144Z,0
2022-09-23T04:50:54.395Z,0
2022-09-23T04:52:10.636Z,5
2022-09-23T04:53:26.868Z,5
2022-09-23T04:54:43.118Z,5
2022-09-23T04:55:59.358Z,5
2022-09-23T04:57:15.600Z,5
2022-09-23T04:58:31.839Z,5
2022-09-23T04:59:48.076Z,11
2022-09-23T05:01:04.310Z,11
2022-09-23T05:02:20.559Z,11
2022-09-23T05:06:08.300Z,16
2022-09-23T05:07:23.558Z,16
2022-09-23T05:08:38.818Z,16
2022-09-23T05:09:55.060Z,22
2022-09-23T05:11:11.289Z,22
2022-09-23T05:12:27.543Z,22
2022-09-23T05:13:43.773Z,28
2022-09-23T05:15:00.023Z,28
2022-09-23T05:18:48.748Z,33
2022-09-23T05:20:04.987Z,39
2022-09-23T05:21:21.220Z,39
2022-09-23T05:22:37.469Z,39
2022-09-23T05:23:52.731Z,45
2022-09-23T05:25:07.987Z,45
2022-09-23T05:26:24.215Z,45
2022-09-23T05:27:40.457Z,50
2022-09-23T05:28:56.000Z,50
2022-09-23T05:30:12.952Z,50
2022-09-23T05:31:29.182Z,56
2022-09-23T05:32:45.434Z,56
2022-09-23T05:34:01.672Z,56
2022-09-23T05:35:17.912Z,56
2022-09-23T05:36:34.141Z,61
2022-09-23T05:37:49.409Z,61
2022-09-23T05:39:04.675Z,61
2022-09-23T05:40:20.913Z,67
2022-09-23T05:41:37.156Z,67
2022-09-23T05:44:09.638Z,73
2022-09-23T05:45:25.875Z,73
2022-09-23T05:46:42.104Z,73
2022-09-23T05:47:58.342Z,78
2022-09-23T05:49:14.597Z,78
2022-09-23T05:50:30.827Z,78
2022-09-23T05:51:47.064Z,78
2022-09-23T05:53:03.312Z,84
2022-09-23T05:54:19.551Z,84
2022-09-23T05:56:51.039Z,90
2022-09-23T05:58:06.302Z,90
2022-09-23T06:00:37.801Z,90
2022-09-23T06:01:54.056Z,90
2022-09-23T06:03:10.296Z,95
2022-09-23T06:04:26.528Z,95
2022-09-23T06:05:42.778Z,95
2022-09-23T06:06:59.013Z,95
2022-09-23T06:08:15.245Z,95
2022-09-23T06:09:31.495Z,95
2022-09-23T06:10:47.731Z,101
2022-09-23T06:12:03.964Z,101
2022-09-23T06:13:19.241Z,101
2022-09-23T06:14:34.485Z,101
2022-09-23T06:15:50.726Z,101
2022-09-23T06:17:06.964Z,101
2022-09-23T06:18:23.207Z,101
2022-09-23T06:20:55.686Z,101
2022-09-23T06:22:11.939Z,101
2022-09-23T06:23:28.172Z,106
2022-09-23T06:24:44.421Z,106
2022-09-23T06:26:00.650Z,106
2022-09-23T06:27:16.904Z,106
2022-09-23T06:28:33.127Z,106
2022-09-23T06:29:49.372Z,112
2022-09-23T06:31:04.624Z,112
2022-09-23T06:32:20.868Z,112
2022-09-23T06:33:37.119Z,112
2022-09-23T06:34:53.357Z,112
2022-09-23T06:36:09.591Z,112
2022-09-23T06:37:25.827Z,118
2022-09-23T06:38:42.078Z,118
2022-09-23T06:39:58.315Z,118
2022-09-23T06:41:13.575Z,118
2022-09-23T06:42:28.844Z,123
2022-09-23T06:43:45.065Z,123
2022-09-23T06:45:01.322Z,123
2022-09-23T06:46:17.562Z,123
2022-09-23T06:47:33.799Z,129
2022-09-23T06:48:50.045Z,129
2022-09-23T06:51:22.525Z,129
2022-09-23T06:52:38.751Z,135
2022-09-23T06:53:55.006Z,135
2022-09-23T06:55:11.233Z,135
2022-09-23T06:56:27.483Z,140
2022-09-23T06:58:59.968Z,140
2022-09-23T07:00:15.229Z,140
2022-09-23T07:01:30.480Z,146
2022-09-23T07:02:46.724Z,146
2022-09-23T07:04:02.958Z,151
2022-09-23T07:05:19.199Z,151
2022-09-23T07:06:35.439Z,151
2022-09-23T07:07:51.679Z,151
2022-09-23T07:09:07.925Z,151
2022-09-23T07:10:24.000Z,157
2022-09-23T07:11:40.393Z,157
2022-09-23T07:12:56.633Z,151
2022-09-23T07:14:11.911Z,151
2022-09-23T07:15:27.153Z,157
2022-09-23T07:16:43.413Z,157
2022-09-23T07:17:59.651Z,157
2022-09-23T07:19:15.879Z,157
2022-09-23T07:20:32.117Z,157
2022-09-23T07:21:48.368Z,157
2022-09-23T07:23:04.599Z,157
2022-09-23T07:24:20.834Z,157
2022-09-23T07:25:37.085Z,151
2022-09-23T07:26:53.327Z,157
2022-09-23T07:29:25.799Z,157
2022-09-23T07:30:42.050Z,157
2022-09-23T07:31:57.312Z,157
2022-09-23T07:33:13.545Z,157
2022-09-23T07:34:29.792Z,163
2022-09-23T07:35:46.015Z,163
2022-09-23T07:37:02.255Z,168
2022-09-23T07:38:18.496Z,163
2022-09-23T07:39:34.745Z,163
2022-09-23T07:40:50.984Z,168
2022-09-23T07:42:07.222Z,168
2022-09-23T07:43:23.464Z,168
2022-09-23T07:45:55.956Z,174
2022-09-23T07:47:12.182Z,174
2022-09-23T07:48:27.434Z,174
2022-09-23T07:49:43.675Z,180
2022-09-23T07:52:16.173Z,180
2022-09-23T07:53:31.422Z,180
2022-09-23T07:54:46.684Z,180
2022-09-23T07:56:02.914Z,185
2022-09-23T07:57:19.172Z,185
2022-09-23T07:58:35.413Z,185
2022-09-23T07:59:51.649Z,185
2022-09-23T08:01:07.892Z,185
2022-09-23T08:03:40.355Z,185
2022-09-23T08:04:56.611Z,185
2022-09-23T08:06:12.838Z,185
2022-09-23T08:07:29.095Z,185
2022-09-23T08:08:45.325Z,185
2022-09-23T08:10:01.566Z,185
2022-09-23T08:11:17.812Z,191
2022-09-23T08:12:34.043Z,185
2022-09-23T08:13:49.298Z,185
2022-09-23T08:16:21.793Z,191
2022-09-23T08:17:37.048Z,191
2022-09-23T08:18:52.307Z,191
2022-09-23T08:20:08.540Z,185
2022-09-23T08:23:57.269Z,191
2022-09-23T08:25:13.494Z,191
2022-09-23T08:26:29.736Z,191
2022-09-23T08:27:45.982Z,191
2022-09-23T08:29:02.233Z,191
2022-09-23T08:30:17.481Z,196
2022-09-23T08:31:33.731Z,196
2022-09-23T08:32:49.967Z,196
2022-09-23T08:34:06.207Z,196
2022-09-23T08:35:22.450Z,196
2022-09-23T08:37:54.933Z,196
2022-09-23T08:39:11.163Z,202
2022-09-23T08:40:27.415Z,202
2022-09-23T08:41:43.640Z,202
2022-09-23T08:42:59.898Z,202
2022-09-23T08:45:32.376Z,208
2022-09-23T08:46:48.610Z,208
2022-09-23T08:48:03.869Z,213
2022-09-23T08:49:20.115Z,213
2022-09-23T08:50:36.355Z,213
2022-09-23T08:51:52.575Z,219
2022-09-23T08:53:08.835Z,219
2022-09-23T08:54:25.071Z,219
2022-09-23T08:55:41.308Z,219
2022-09-23T08:56:57.553Z,225
2022-09-23T08:58:13.789Z,225
2022-09-23T08:59:30.023Z,225
2022-09-23T09:00:46.265Z,225
2022-09-23T09:02:02.512Z,225
2022-09-23T09:03:18.752Z,225
2022-09-23T09:05:50.253Z,230
2022-09-23T09:08:22.732Z,230
2022-09-23T09:09:38.979Z,230
2022-09-23T09:10:54.224Z,230
2022-09-23T09:12:10.474Z,236
2022-09-23T09:13:26.705Z,236
2022-09-23T09:14:42.956Z,236
2022-09-23T09:15:59.190Z,241
2022-09-23T09:17:15.429Z,241
2022-09-23T09:18:31.667Z,241
2022-09-23T09:19:47.905Z,241
2022-09-23T09:21:04.152Z,241
2022-09-23T09:22:20.381Z,241
2022-09-23T09:23:36.621Z,236
2022-09-23T09:24:52.862Z,236
2022-09-23T09:26:09.103Z,236
2022-09-23T09:27:24.352Z,236
2022-09-23T09:28:40.602Z,230
2022-09-23T09:29:56.851Z,230
2022-09-23T09:31:13.090Z,230
2022-09-23T09:32:29.330Z,225
2022-09-23T09:33:44.592Z,225
2022-09-23T09:34:59.829Z,219
2022-09-23T09:36:16.077Z,225
2022-09-23T09:37:32.311Z,219
2022-09-23T09:38:48.552Z,219
2022-09-23T09:40:04.809Z,219
2022-09-23T09:41:21.044Z,213
2022-09-23T09:42:37.286Z,213
2022-09-23T09:43:53.512Z,213
2022-09-23T09:45:09.757Z,213
2022-09-23T09:46:26.007Z,213
2022-09-23T09:47:41.255Z,213
2022-09-23T09:48:56.521Z,213
2022-09-23T09:50:12.748Z,219
2022-09-23T09:51:28.986Z,213
2022-09-23T09:52:45.226Z,213
2022-09-23T09:54:01.477Z,219
2022-09-23T09:55:17.709Z,219
2022-09-23T09:56:33.954Z,219
2022-09-23T09:57:50.195Z,219
2022-09-23T09:59:06.430Z,219
2022-09-23T10:00:22.670Z,219
2022-09-23T10:01:38.906Z,225
2022-09-23T10:02:55.143Z,225
2022-09-23T10:04:11.398Z,230
2022-09-23T10:05:26.654Z,230
2022-09-23T10:06:42.888Z,230
2022-09-23T10:07:59.123Z,230
2022-09-23T10:09:15.357Z,236
2022-09-23T10:10:31.615Z,236
2022-09-23T10:11:47.844Z,236
2022-09-23T10:13:04.076Z,236
2022-09-23T10:14:20.331Z,236
2022-09-23T10:16:52.815Z,241
2022-09-23T10:18:09.040Z,241
2022-09-23T10:19:25.292Z,247
2022-09-23T10:20:41.532Z,247
2022-09-23T10:21:56.771Z,253
2022-09-23T10:24:29.251Z,264
2022-09-23T10:25:45.499Z,270
2022-09-23T10:27:01.751Z,270
2022-09-23T10:28:17.984Z,281
2022-09-23T10:29:34.221Z,286
2022-09-23T10:30:50.450Z,292
2022-09-23T10:32:06.704Z,298
2022-09-23T10:33:22.937Z,303
2022-09-23T10:34:39.178Z,309
2022-09-23T10:35:55.423Z,309
2022-09-23T10:39:44.140Z,298
2022-09-23T10:40:59.397Z,298
2022-09-23T10:42:14.666Z,292
2022-09-23T10:43:30.901Z,292
2022-09-23T10:44:47.141Z,292
2022-09-23T10:46:03.378Z,286
2022-09-23T10:47:19.617Z,292
2022-09-23T10:48:35.844Z,286
2022-09-23T10:49:52.091Z,286
2022-09-23T10:51:08.328Z,286
2022-09-23T10:52:24.578Z,286
2022-09-23T10:54:57.062Z,292
2022-09-23T10:56:13.291Z,298
2022-09-23T10:57:29.539Z,303
2022-09-23T10:58:44.785Z,303
2022-09-23T11:00:01.034Z,303
2022-09-23T11:01:17.259Z,309
2022-09-23T11:02:33.499Z,309
2022-09-23T11:03:49.739Z,303
2022-09-23T11:05:05.979Z,303
2022-09-23T11:06:22.224Z,298
2022-09-23T11:07:38.470Z,298
2022-09-23T11:08:53.723Z,292
2022-09-23T11:10:08.976Z,286
2022-09-23T11:11:25.228Z,286
2022-09-23T11:12:41.456Z,286
2022-09-23T11:13:57.711Z,286
2022-09-23T11:15:13.937Z,286
2022-09-23T11:17:46.422Z,286
2022-09-23T11:19:02.674Z,281
2022-09-23T11:20:18.909Z,281
2022-09-23T11:21:35.135Z,281
2022-09-23T11:22:51.394Z,275
2022-09-23T11:24:07.618Z,275
2022-09-23T11:25:23.872Z,270
2022-09-23T11:26:39.120Z,258
2022-09-23T11:27:55.359Z,247
2022-09-23T11:29:11.605Z,247
2022-09-23T11:30:27.849Z,241
2022-09-23T11:33:00.315Z,253
2022-09-23T11:34:15.579Z,258
2022-09-23T11:35:30.830Z,253
2022-09-23T11:36:47.066Z,253
2022-09-23T11:38:03.307Z,258
2022-09-23T11:40:35.790Z,270
2022-09-23T11:41:52.043Z,270
2022-09-23T11:43:08.265Z,270
2022-09-23T11:44:24.509Z,264
2022-09-23T11:45:40.755Z,247
2022-09-23T11:46:56.997Z,247
2022-09-23T11:48:13.228Z,241
2022-09-23T11:49:29.468Z,236
2022-09-23T11:50:45.710Z,236
2022-09-23T11:52:00.968Z,247
2022-09-23T11:53:17.215Z,258
2022-09-23T11:55:49.681Z,281
2022-09-23T11:57:04.944Z,275
2022-09-23T11:58:20.211Z,286
2022-09-23T11:59:36.443Z,298
2022-09-23T12:00:52.680Z,292
2022-09-23T12:03:25.164Z,298
2022-09-23T12:04:41.400Z,286
2022-09-23T12:05:57.649Z,281
2022-09-23T12:07:13.896Z,286
2022-09-23T12:08:30.116Z,292
2022-09-23T12:09:46.358Z,292
2022-09-23T12:11:02.604Z,286
2022-09-23T12:12:18.851Z,275
2022-09-23T12:13:35.087Z,264
2022-09-23T12:14:50.351Z,258
2022-09-23T12:16:06.584Z,253
2022-09-23T12:17:22.818Z,253
2022-09-23T12:18:39.056Z,247
2022-09-23T12:19:55.303Z,241
2022-09-23T12:21:11.547Z,241
2022-09-23T12:22:27.785Z,241
2022-09-23T12:23:44.010Z,236
2022-09-23T12:26:15.524Z,225
2022-09-23T12:27:30.782Z,225
2022-09-23T12:28:47.010Z,225
2022-09-23T12:30:02.272Z,219
2022-09-23T12:31:17.533Z,225
2022-09-23T12:33:50.012Z,225
2022-09-23T12:35:06.251Z,230
2022-09-23T12:36:22.495Z,241
2022-09-23T12:37:38.728Z,258
2022-09-23T12:38:54.979Z,275
2022-09-23T12:40:11.208Z,292
2022-09-23T12:41:27.459Z,309
2022-09-23T12:42:43.703Z,320
2022-09-23T12:43:59.938Z,331
2022-09-23T12:45:15.198Z,348
2022-09-23T12:46:31.443Z,360
2022-09-23T12:47:47.677Z,348
2022-09-23T12:49:03.918Z,343
2022-09-23T12:50:20.160Z,326
2022-09-23T12:51:36.384Z,315
2022-09-23T12:52:52.644Z,315
2022-09-23T12:54:08.883Z,309
2022-09-23T12:56:41.343Z,309
2022-09-23T12:57:57.598Z,309
2022-09-23T12:59:13.823Z,303
2022-09-23T13:00:29.086Z,298
2022-09-23T13:01:44.346Z,292
2022-09-23T13:03:00.581Z,286
2022-09-23T13:04:16.832Z,275
2022-09-23T13:06:49.312Z,275
2022-09-23T13:08:05.547Z,298
2022-09-23T13:09:21.788Z,309
2022-09-23T13:10:38.032Z,320
2022-09-23T13:11:54.277Z,326
2022-09-23T13:13:10.499Z,326
2022-09-23T13:14:26.738Z,331
2022-09-23T13:15:42.998Z,331
2022-09-23T13:16:59.218Z,320
2022-09-23T13:18:14.488Z,315
2022-09-23T13:19:30.718Z,315
2022-09-23T13:20:46.970Z,303
2022-09-23T13:22:03.213Z,286
2022-09-23T13:23:19.438Z,275
2022-09-23T13:24:35.684Z,264
2022-09-23T13:25:51.921Z,258
2022-09-23T13:27:08.165Z,253
2022-09-23T13:28:24.395Z,253
2022-09-23T13:29:40.633Z,258
2022-09-23T13:30:56.884Z,258
2022-09-23T13:32:13.123Z,258
2022-09-23T13:33:29.351Z,258
2022-09-23T13:34:44.627Z,264
2022-09-23T13:36:00.849Z,275
2022-09-23T13:37:17.090Z,281
2022-09-23T13:38:33.342Z,292
2022-09-23T13:39:49.582Z,286
2022-09-23T13:42:22.000Z,292
2022-09-23T13:43:38.290Z,298
2022-09-23T13:44:54.545Z,298
2022-09-23T13:46:10.766Z,303
2022-09-23T13:47:27.019Z,303
2022-09-23T13:49:59.506Z,298
2022-09-23T13:51:14.746Z,292
2022-09-23T13:52:30.983Z,303
2022-09-23T13:53:47.229Z,309
2022-09-23T13:55:03.471Z,303
2022-09-23T13:57:35.946Z,315
2022-09-23T13:58:51.222Z,303
2022-09-23T14:00:06.473Z,286
2022-09-23T14:01:22.709Z,275
2022-09-23T14:02:38.955Z,264
2022-09-23T14:03:55.184Z,253
2022-09-23T14:05:11.421Z,241
2022-09-23T14:06:27.661Z,241
2022-09-23T14:07:43.898Z,253
2022-09-23T14:09:00.138Z,264
2022-09-23T14:10:16.380Z,275
2022-09-23T14:11:32.630Z,275
2022-09-23T14:12:48.869Z,275
2022-09-23T14:14:04.131Z,286
2022-09-23T14:15:19.387Z,309
2022-09-23T14:17:51.860Z,303
2022-09-23T14:19:08.107Z,286
2022-09-23T14:20:24.350Z,281
2022-09-23T14:21:40.573Z,281
2022-09-23T14:22:56.822Z,270
2022-09-23T14:24:13.058Z,258
2022-09-23T14:25:29.302Z,253
2022-09-23T14:28:01.787Z,264
2022-09-23T14:29:18.023Z,270
2022-09-23T14:30:33.294Z,275
2022-09-23T14:33:04.769Z,281
2022-09-23T14:35:37.256Z,286
2022-09-23T14:36:53.506Z,286
2022-09-23T14:38:09.730Z,286
2022-09-23T14:39:25.989Z,286
2022-09-23T14:40:42.223Z,286
2022-09-23T14:43:14.698Z,264
2022-09-23T14:44:30.935Z,253
2022-09-23T14:45:47.188Z,241
2022-09-23T14:47:03.426Z,225
2022-09-23T14:48:18.687Z,219
2022-09-23T14:49:33.944Z,213
2022-09-23T14:50:50.165Z,208
2022-09-23T14:52:06.408Z,202
2022-09-23T14:53:22.652Z,196
2022-09-23T14:54:38.885Z,191
2022-09-23T14:55:55.131Z,185
2022-09-23T14:57:11.382Z,185
2022-09-23T14:58:27.607Z,180
2022-09-23T14:59:43.851Z,174
2022-09-23T15:01:00.089Z,174
2022-09-23T15:02:15.356Z,174
2022-09-23T15:03:31.600Z,168
2022-09-23T15:04:46.845Z,168
2022-09-23T15:06:03.087Z,168
2022-09-23T15:07:19.331Z,168
2022-09-23T15:08:35.565Z,168
2022-09-23T15:09:51.805Z,168
2022-09-23T15:11:08.054Z,168
2022-09-23T15:12:24.282Z,174
2022-09-23T15:13:40.528Z,174
2022-09-23T15:14:56.776Z,168
2022-09-23T15:16:12.028Z,168
2022-09-23T15:17:27.297Z,174
2022-09-23T15:18:43.534Z,174
2022-09-23T15:19:59.778Z,174
2022-09-23T15:21:16.013Z,180
2022-09-23T15:22:32.256Z,180
2022-09-23T15:23:48.480Z,180
2022-09-23T15:25:04.731Z,185
2022-09-23T15:26:20.960Z,180
2022-09-23T15:28:53.454Z,180
2022-09-23T15:30:09.682Z,180
2022-09-23T15:31:25.932Z,180
2022-09-23T15:32:42.157Z,180
2022-09-23T15:33:57.428Z,174
2022-09-23T15:36:29.896Z,180
2022-09-23T15:39:01.396Z,180
2022-09-23T15:40:16.667Z,180
2022-09-23T15:41:31.911Z,180
2022-09-23T15:42:48.159Z,185
2022-09-23T15:44:04.411Z,185
2022-09-23T15:45:20.643Z,185
2022-09-23T15:46:36.875Z,185
2022-09-23T15:47:53.115Z,185
2022-09-23T15:49:09.353Z,185
2022-09-23T15:50:25.597Z,185
2022-09-23T15:51:41.845Z,185
2022-09-23T15:52:58.089Z,185
2022-09-23T15:54:13.343Z,185
2022-09-23T15:55:28.591Z,180
2022-09-23T15:56:44.841Z,168
2022-09-23T15:58:01.086Z,157
2022-09-23T15:59:17.323Z,151
2022-09-23T16:00:33.561Z,140
2022-09-23T16:01:49.795Z,135
2022-09-23T16:03:06.045Z,129
2022-09-23T16:04:22.282Z,118
2022-09-23T16:05:38.510Z,112
2022-09-23T16:06:54.755Z,112
2022-09-23T16:08:11.003Z,106
2022-09-23T16:09:27.240Z,106
2022-09-23T16:10:43.477Z,106
2022-09-23T16:11:58.741Z,101
2022-09-23T16:14:31.201Z,101
2022-09-23T16:15:47.445Z,101
2022-09-23T16:17:03.681Z,101
2022-09-23T16:18:19.939Z,101
2022-09-23T16:19:36.166Z,95
2022-09-23T16:22:08.655Z,90
2022-09-23T16:23:24.888Z,90
2022-09-23T16:24:41.139Z,90
2022-09-23T16:25:57.378Z,84
2022-09-23T16:27:13.603Z,84
2022-09-23T16:28:28.871Z,84
2022-09-23T16:29:45.096Z,78
2022-09-23T16:31:01.344Z,78
2022-09-23T16:32:17.579Z,78
2022-09-23T16:33:33.823Z,73
2022-09-23T16:34:50.071Z,73
2022-09-23T16:37:22.545Z,61
2022-09-23T16:38:37.799Z,61
2022-09-23T16:39:53.067Z,56
2022-09-23T16:41:09.297Z,50
2022-09-23T16:42:25.543Z,50
2022-09-23T16:43:41.783Z,45
2022-09-23T16:44:58.029Z,39
2022-09-23T16:46:14.259Z,39
2022-09-23T16:47:30.505Z,33
2022-09-23T16:48:46.748Z,33
2022-09-23T16:50:02.974Z,28
2022-09-23T16:51:19.229Z,28
2022-09-23T16:52:35.452Z,28
2022-09-23T16:53:50.731Z,22
2022-09-23T16:55:05.981Z,22
2022-09-23T16:56:22.211Z,16
2022-09-23T16:57:38.461Z,16
2022-09-23T16:58:54.693Z,11
2022-09-23T17:00:10.928Z,11
2022-09-23T17:01:26.191Z,11
2022-09-23T17:02:42.439Z,5
2022-09-23T17:03:58.676Z,5
2022-09-23T17:05:14.921Z,5
2022-09-23T17:06:31.148Z,5
2022-09-23T17:07:47.399Z,5
2022-09-23T17:09:03.645Z,5
2022-09-23T17:10:19.877Z,0
2022-09-23T17:12:52.353Z,0
2022-09-23T17:14:08.595Z,0
2022-09-23T17:15:24.833Z,0
2022-09-23T17:16:41.077Z,0
2022-09-23T17:17:56.327Z,0
2022-09-23T17:19:12.571Z,0
2022-09-23T17:20:28.804Z,0
2022-09-23T17:23:01.286Z,0
2022-09-23T17:24:17.520Z,0
2022-09-23T17:25:33.769Z,0
2022-09-23T17:26:50.000Z,0
2022-09-23T17:28:06.240Z,0
2022-09-23T17:29:22.482Z,0
2022-09-23T17:30:38.721Z,0
2022-09-23T17:31:54.966Z,0
2022-09-23T17:33:11.213Z,0
2022-09-23T17:35:42.694Z,0
2022-09-23T17:38:14.214Z,0
2022-09-23T17:39:30.445Z,0
2022-09-23T17:40:45.755Z,0
2022-09-23T17:42:01.067Z,0
2022-09-23T17:43:17.365Z,0
2022-09-23T17:45:49.952Z,0
2022-09-23T17:47:06.245Z,0
2022-09-23T17:48:22.530Z,0
2022-09-23T17:49:38.841Z,0
2022-09-23T17:50:55.132Z,0
2022-09-23T17:53:27.717Z,0
2022-09-23T17:54:44.001Z,0
2022-09-23T17:56:00.293Z,0
2022-09-23T17:57:15.626Z,0
2022-09-23T17:58:30.933Z,0
2022-09-23T18:01:03.510Z,0
2022-09-23T18:02:19.799Z,0
2022-09-23T18:03:36.109Z,0
2022-09-23T18:04:52.386Z,0
2022-09-23T18:06:08.691Z,0
2022-09-23T18:08:41.286Z,0
2022-09-23T18:09:57.579Z,0
2022-09-23T18:11:13.870Z,0
2022-09-23T18:12:30.151Z,0
2022-09-23T18:13:46.456Z,0
2022-09-23T18:15:01.768Z,0
2022-09-23T18:16:18.064Z,0
2022-09-23T18:17:34.351Z,0
2022-09-23T18:18:50.637Z,0
2022-09-23T18:20:06.942Z,0
2022-09-23T18:21:23.237Z,0
2022-09-23T18:23:55.826Z,0
2022-09-23T18:25:12.111Z,0
2022-09-23T18:26:28.413Z,0
2022-09-23T18:27:44.688Z,0
2022-09-23T18:29:00.989Z,0
2022-09-23T18:30:17.278Z,0
2022-09-23T18:31:32.586Z,0
2022-09-23T18:32:48.889Z,0
2022-09-23T18:34:05.186Z,0
2022-09-23T18:35:20.493Z,0
2022-09-23T18:36:35.801Z,0
2022-09-23T18:37:52.093Z,0
2022-09-23T18:39:08.389Z,0
2022-09-23T18:40:24.681Z,0
2022-09-23T18:41:40.985Z,0
2022-09-23T18:42:57.274Z,0
2022-09-23T18:44:13.578Z,0
2022-09-23T18:45:29.854Z,0
2022-09-23T18:46:46.149Z,0
2022-09-23T18:48:02.445Z,0
2022-09-23T18:49:17.775Z,0
2022-09-23T18:50:34.059Z,0
2022-09-23T18:51:49.381Z,0
2022-09-23T18:53:05.666Z,0
2022-09-23T18:54:21.968Z,0
2022-09-23T18:55:38.263Z,0
2022-09-23T18:56:54.555Z,0
2022-09-23T18:58:10.833Z,0
2022-09-23T18:59:27.145Z,0
2022-09-23T19:00:43.433Z,0
2022-09-23T19:01:59.732Z,0
2022-09-23T19:03:16.013Z,0
2022-09-23T19:04:32.305Z,0
2022-09-23T19:05:48.601Z,0
2022-09-23T19:07:04.900Z,0
2022-09-23T19:08:20.197Z,0
2022-09-23T19:09:36.506Z,0
2022-09-23T19:10:52.796Z,0
2022-09-23T19:12:09.091Z,0
2022-09-23T19:13:25.382Z,0
2022-09-23T19:14:41.678Z,0
2022-09-23T19:17:14.269Z,0
2022-09-23T19:18:30.561Z,0
2022-09-23T19:19:46.858Z,0
2022-09-23T19:21:03.143Z,0
2022-09-23T19:22:19.430Z,0
2022-09-23T19:23:35.741Z,0